Time;durP1;ratioP1;P1;durP2;ratioP2;P2;SDS_P1;SDS_P2;PMS_P1;PMS_P2;Temp;Humidity;BMP_temperature;BMP_pressure;BME280_temperature;BME280_humidity;BME280_pressure;Samples;Min_cycle;Max_cycle;Signal;HPM_P1;HPM_P2
2023/04/10 00:00:57;;;;;;;5.03;3.30;;;;;;;19.07;40.31;102028.53;4991773;28;20439;-67
2023/04/10 00:03:23;;;;;;;5.32;3.35;;;;;;;19.07;40.44;102029.38;4987198;28;20295;-67
2023/04/10 00:05:49;;;;;;;5.10;3.45;;;;;;;19.07;40.50;102017.97;4984166;28;20042;-67
2023/04/10 00:08:14;;;;;;;5.00;3.15;;;;;;;19.05;40.55;102011.94;5000251;28;20030;-67
2023/04/10 00:10:39;;;;;;;6.35;3.60;;;;;;;19.03;40.54;102007.59;4986194;28;20038;-67
2023/04/10 00:13:05;;;;;;;5.70;3.42;;;;;;;19.03;40.11;102004.13;4985514;28;20030;-67
2023/04/10 00:15:30;;;;;;;4.90;3.10;;;;;;;19.03;40.42;102002.31;5003358;28;20060;-68
2023/04/10 00:17:56;;;;;;;4.75;3.20;;;;;;;19.01;40.34;101984.88;5003355;28;20022;-69
2023/04/10 00:20:22;;;;;;;6.18;3.40;;;;;;;18.99;40.22;101978.84;4977213;28;20037;-66
2023/04/10 00:22:48;;;;;;;5.40;3.47;;;;;;;19.03;40.26;101988.25;5000346;28;20049;-68
2023/04/10 00:25:13;;;;;;;4.47;2.90;;;;;;;18.99;40.27;101984.13;4985593;28;20037;-69
2023/04/10 00:27:39;;;;;;;5.45;3.45;;;;;;;18.99;40.11;101982.34;4984187;28;20030;-66
2023/04/10 00:30:05;;;;;;;5.03;3.25;;;;;;;19.00;40.15;101983.19;4992249;28;20041;-65
2023/04/10 00:32:30;;;;;;;5.25;3.28;;;;;;;18.97;40.12;101973.66;4990850;28;20383;-66
2023/04/10 00:34:55;;;;;;;4.53;3.00;;;;;;;18.95;40.32;101964.16;4986074;28;20038;-67
2023/04/10 00:37:20;;;;;;;4.77;3.23;;;;;;;18.98;40.14;101972.72;4983905;28;20450;-67
2023/04/10 00:39:46;;;;;;;6.10;3.42;;;;;;;18.95;40.25;101967.63;4985598;28;20263;-67
2023/04/10 00:42:11;;;;;;;4.25;2.75;;;;;;;18.97;40.19;101968.38;4991881;28;20037;-67
2023/04/10 00:44:36;;;;;;;5.50;3.30;;;;;;;18.94;40.10;101963.28;5001659;28;20041;-66
2023/04/10 00:47:06;;;;;;;5.88;3.40;;;;;;;18.93;40.17;101961.63;5001518;28;20057;-66
2023/04/10 00:49:32;;;;;;;4.88;2.97;;;;;;;18.94;40.25;101962.47;4989724;28;20065;-67
2023/04/10 00:51:57;;;;;;;5.47;3.40;;;;;;;18.94;39.97;101958.00;4983338;28;20238;-67
2023/04/10 00:54:22;;;;;;;5.18;3.40;;;;;;;18.91;39.90;101955.56;4988339;28;20368;-66
2023/04/10 00:56:49;;;;;;;5.43;2.92;;;;;;;18.91;39.99;101950.28;4988992;28;20475;-67
2023/04/10 00:59:14;;;;;;;5.68;3.47;;;;;;;18.92;39.84;101959.91;4987598;28;20065;-67
2023/04/10 01:01:40;;;;;;;5.20;3.05;;;;;;;18.90;39.92;101958.31;5002588;28;20076;-67
2023/04/10 01:04:05;;;;;;;5.30;3.35;;;;;;;18.92;39.96;101962.56;4990374;28;20034;-67
2023/04/10 01:07:08;;;;;;;5.68;3.70;;;;;;;18.91;40.08;101962.66;4987993;28;20034;-67
2023/04/10 01:10:12;;;;;;;4.63;2.88;;;;;;;18.90;39.96;101958.31;4977469;28;20022;-68
2023/04/10 01:12:57;;;;;;;5.10;3.15;;;;;;;18.89;39.89;101954.84;4974173;28;20119;-67
2023/04/10 01:15:27;;;;;;;5.80;2.80;;;;;;;18.88;39.79;101954.94;4972550;28;20037;-68
2023/04/10 01:18:03;;;;;;;4.55;3.00;;;;;;;18.89;39.75;101952.19;4994231;28;20041;-68
2023/04/10 01:20:31;;;;;;;4.68;3.17;;;;;;;18.86;39.82;101947.13;4990392;28;20034;-68
2023/04/10 01:23:20;;;;;;;5.32;3.17;;;;;;;18.86;39.96;101941.84;4993290;28;20058;-67
2023/04/10 01:25:57;;;;;;;5.00;3.15;;;;;;;18.87;40.04;101940.03;4989307;28;20037;-67
2023/04/10 01:28:41;;;;;;;4.82;3.05;;;;;;;18.85;39.81;101941.00;4992124;28;20587;-67
2023/04/10 01:31:12;;;;;;;5.80;3.30;;;;;;;18.83;39.87;101942.88;4989665;28;20038;-67
2023/04/10 01:33:44;;;;;;;5.28;3.75;;;;;;;18.84;40.04;101938.47;4984185;28;20479;-67
2023/04/10 01:36:12;;;;;;;5.05;3.47;;;;;;;18.83;39.76;101939.38;4990967;28;20030;-66
2023/04/10 01:38:40;;;;;;;5.82;3.20;;;;;;;18.81;39.82;101938.63;5001866;28;20105;-69
2023/04/10 01:41:07;;;;;;;5.03;3.15;;;;;;;18.81;39.68;101936.00;4985941;28;20049;-67
2023/04/10 01:43:33;;;;;;;5.10;3.20;;;;;;;18.80;39.96;101935.16;4988569;28;20420;-67
2023/04/10 01:46:01;;;;;;;4.93;3.30;;;;;;;18.80;39.82;101931.66;4997360;28;20034;-66
2023/04/10 01:48:26;;;;;;;5.18;3.20;;;;;;;18.80;39.82;101929.88;4985447;28;20391;-68
2023/04/10 01:50:55;;;;;;;5.07;3.30;;;;;;;18.80;39.64;101927.22;4986734;28;20033;-68
2023/04/10 01:53:21;;;;;;;4.65;3.00;;;;;;;18.80;39.79;101924.59;5000689;28;20393;-68
2023/04/10 01:55:47;;;;;;;5.28;3.28;;;;;;;18.77;39.65;101919.50;5001766;28;20030;-67
2023/04/10 01:58:12;;;;;;;4.68;2.95;;;;;;;18.78;39.42;101915.91;4988014;28;20041;-65
2023/04/10 02:00:40;;;;;;;4.75;3.40;;;;;;;18.78;39.77;101907.97;4976373;28;20054;-66
2023/04/10 02:03:06;;;;;;;4.68;3.10;;;;;;;18.78;39.65;101905.34;5001688;28;20034;-67
2023/04/10 02:05:50;;;;;;;5.70;3.55;;;;;;;18.72;39.73;101889.91;4987932;28;20042;-67
2023/04/10 02:08:39;;;;;;;4.97;3.03;;;;;;;18.74;39.65;101888.03;5001848;28;20053;-67
2023/04/10 02:11:23;;;;;;;4.55;3.00;;;;;;;18.77;39.61;101889.59;4999753;28;20417;-69
2023/04/10 02:13:50;;;;;;;4.88;2.90;;;;;;;18.74;39.49;101884.53;4986457;28;20042;-67
2023/04/10 02:16:19;;;;;;;4.75;3.10;;;;;;;18.74;39.49;101887.16;4981864;28;20125;-67
2023/04/10 02:18:46;;;;;;;5.50;3.65;;;;;;;18.75;39.55;101883.59;4995079;28;20371;-66
2023/04/10 02:21:12;;;;;;;5.15;3.15;;;;;;;18.72;39.48;101881.97;5000965;28;20081;-68
2023/04/10 02:23:37;;;;;;;4.93;3.35;;;;;;;18.71;39.69;101872.38;4986228;28;20438;-68
2023/04/10 02:26:07;;;;;;;4.30;2.92;;;;;;;18.71;39.46;101876.81;4981831;28;20444;-67
2023/04/10 02:28:32;;;;;;;4.97;3.08;;;;;;;18.70;39.44;101872.50;4989297;28;20053;-68
2023/04/10 02:30:58;;;;;;;4.75;3.10;;;;;;;18.70;39.57;101875.13;4981777;28;20285;-67
2023/04/10 02:33:23;;;;;;;5.03;3.40;;;;;;;18.67;39.20;101874.41;4987706;28;20044;-68
2023/04/10 02:35:48;;;;;;;4.55;2.65;;;;;;;18.67;39.50;101871.75;5001129;28;20291;-67
2023/04/10 02:38:14;;;;;;;5.43;3.22;;;;;;;18.70;39.56;101875.13;4990105;28;20038;-66
2023/04/10 02:40:39;;;;;;;4.32;2.85;;;;;;;18.68;39.63;101865.50;4981520;28;20113;-67
2023/04/10 02:43:05;;;;;;;4.97;2.73;;;;;;;18.68;39.81;101870.78;5000961;28;20037;-66
2023/04/10 02:45:32;;;;;;;4.72;2.90;;;;;;;18.66;39.99;101871.88;5001246;28;20639;-66
2023/04/10 02:47:57;;;;;;;4.63;3.08;;;;;;;18.68;39.89;101875.22;4983614;28;20069;-66
2023/04/10 02:50:22;;;;;;;4.90;3.22;;;;;;;18.66;39.65;101874.50;4999929;28;20435;-66
2023/04/10 02:52:48;;;;;;;4.45;2.70;;;;;;;18.68;39.78;101880.50;4963704;28;20542;-70
2023/04/10 02:55:13;;;;;;;4.57;2.83;;;;;;;18.66;39.65;101879.78;4981679;28;20042;-67
2023/04/10 02:57:38;;;;;;;5.20;3.30;;;;;;;18.67;39.65;101874.41;4996443;28;20052;-66
2023/04/10 03:00:04;;;;;;;6.13;3.37;;;;;;;18.63;39.66;101867.63;5001026;28;20723;-67
2023/04/10 03:02:30;;;;;;;4.72;2.67;;;;;;;18.65;39.94;101867.53;4987977;28;20279;-67
2023/04/10 03:04:55;;;;;;;4.40;2.80;;;;;;;18.66;39.58;101863.94;4997100;28;20088;-66
2023/04/10 03:07:21;;;;;;;5.03;3.33;;;;;;;18.65;39.50;101864.88;5004216;28;20777;-67
2023/04/10 03:09:46;;;;;;;6.03;3.50;;;;;;;18.65;39.43;101867.53;4989065;28;20264;-66
2023/04/10 03:12:11;;;;;;;4.75;3.17;;;;;;;18.63;39.33;101872.06;4999055;28;20021;-67
2023/04/10 03:14:36;;;;;;;5.10;3.00;;;;;;;18.63;39.81;101875.53;5004972;28;20122;-66
2023/04/10 03:17:02;;;;;;;5.27;2.90;;;;;;;18.62;39.68;101879.13;4990193;28;20263;-68
2023/04/10 03:19:27;;;;;;;5.15;3.17;;;;;;;18.64;39.50;101882.53;4990672;28;21139;-66
2023/04/10 03:21:52;;;;;;;5.65;3.30;;;;;;;18.61;39.37;101880.09;5003839;28;20541;-66
2023/04/10 03:24:17;;;;;;;5.00;3.20;;;;;;;18.61;39.33;101880.09;5004246;28;20038;-66
2023/04/10 03:26:43;;;;;;;4.90;3.10;;;;;;;18.63;39.23;101880.81;4991198;28;21079;-69
2023/04/10 03:29:09;;;;;;;5.18;3.10;;;;;;;18.63;39.32;101872.06;4999440;28;20347;-67
2023/04/10 03:31:34;;;;;;;4.90;3.10;;;;;;;18.60;38.85;101873.09;5002361;28;20485;-66
2023/04/10 03:33:59;;;;;;;4.80;2.80;;;;;;;18.61;38.89;101872.16;5004133;28;20321;-68
2023/04/10 03:36:26;;;;;;;4.72;2.97;;;;;;;18.59;39.40;101865.28;5003851;28;20271;-67
2023/04/10 03:38:51;;;;;;;4.78;3.05;;;;;;;18.60;39.22;101864.34;4984560;28;20045;-67
2023/04/10 03:41:17;;;;;;;5.53;3.15;;;;;;;18.60;39.19;101856.44;4984542;28;20608;-67
2023/04/10 03:43:42;;;;;;;5.05;2.90;;;;;;;18.58;39.04;101851.25;4986840;28;20399;-66
2023/04/10 03:46:07;;;;;;;4.68;3.00;;;;;;;18.59;39.07;101854.72;4999461;28;20185;-68
2023/04/10 03:48:32;;;;;;;5.22;3.30;;;;;;;18.60;39.01;101854.63;4984500;28;20042;-69
2023/04/10 03:50:58;;;;;;;4.85;3.10;;;;;;;18.59;39.13;101849.44;5000903;28;20033;-67
2023/04/10 03:53:23;;;;;;;5.15;3.17;;;;;;;18.57;38.91;101849.56;4995455;28;20391;-69
2023/04/10 03:55:51;;;;;;;4.60;3.08;;;;;;;18.57;39.01;101841.63;4985385;28;20066;-68
2023/04/10 03:58:16;;;;;;;4.88;3.10;;;;;;;18.58;39.12;101839.81;4984029;28;20545;-65
2023/04/10 04:00:41;;;;;;;4.40;2.80;;;;;;;18.56;38.92;101839.09;4977385;28;20034;-65
2023/04/10 04:03:07;;;;;;;4.90;3.20;;;;;;;18.52;38.84;101837.59;5003434;28;20042;-67
2023/04/10 04:05:32;;;;;;;5.00;3.00;;;;;;;18.56;38.90;101841.72;4993422;28;20116;-67
2023/04/10 04:07:57;;;;;;;4.80;3.03;;;;;;;18.56;38.89;101837.28;4984087;28;20497;-67
2023/04/10 04:10:23;;;;;;;6.32;3.00;;;;;;;18.54;38.86;101831.28;4999083;28;20387;-67
2023/04/10 04:12:48;;;;;;;4.88;3.05;;;;;;;18.53;38.81;101829.56;5002714;28;20033;-69
2023/04/10 04:15:14;;;;;;;4.60;3.13;;;;;;;18.53;39.17;101824.28;5003310;28;20030;-68
2023/04/10 04:17:41;;;;;;;5.20;3.13;;;;;;;18.53;39.37;101828.75;5002815;28;20041;-67
2023/04/10 04:20:07;;;;;;;4.90;3.10;;;;;;;18.52;39.04;101827.03;5003280;28;20041;-66
2023/04/10 04:22:32;;;;;;;4.38;2.88;;;;;;;18.49;39.20;101820.19;4994568;28;20140;-68
2023/04/10 04:24:57;;;;;;;5.10;3.10;;;;;;;18.52;39.25;101821.75;4983937;28;20630;-67
2023/04/10 04:27:22;;;;;;;6.13;3.00;;;;;;;18.51;39.08;101815.63;5000943;28;20382;-69
2023/04/10 04:29:48;;;;;;;5.57;2.92;;;;;;;18.50;39.29;101816.63;5003054;28;20042;-69
2023/04/10 04:32:13;;;;;;;5.55;3.38;;;;;;;18.50;39.17;101808.69;4996521;28;20030;-68
2023/04/10 04:34:39;;;;;;;5.10;3.20;;;;;;;18.49;39.26;101810.47;4983524;28;20038;-67
2023/04/10 04:37:04;;;;;;;4.57;3.00;;;;;;;18.49;39.11;101812.28;4989004;28;20092;-67
2023/04/10 04:39:30;;;;;;;5.15;3.28;;;;;;;18.51;39.00;101814.81;5002837;28;20030;-69
2023/04/10 04:41:55;;;;;;;5.10;3.05;;;;;;;18.48;38.98;101810.56;4984526;28;20136;-68
2023/04/10 04:44:20;;;;;;;5.88;3.42;;;;;;;18.49;38.72;101809.63;4992788;28;20069;-67
2023/04/10 04:46:46;;;;;;;4.60;2.90;;;;;;;18.48;38.91;101814.06;4989244;28;20049;-67
2023/04/10 04:49:11;;;;;;;5.13;3.47;;;;;;;18.51;38.83;101813.00;4999113;28;20037;-66
2023/04/10 04:51:37;;;;;;;4.90;3.20;;;;;;;18.48;38.89;101807.94;5002341;28;20038;-69
2023/04/10 04:54:02;;;;;;;5.63;3.58;;;;;;;18.47;38.73;101804.44;4995209;28;20070;-66
2023/04/10 04:56:28;;;;;;;5.53;3.35;;;;;;;18.46;39.02;101794.84;4992145;28;20415;-67
2023/04/10 04:58:53;;;;;;;4.57;3.13;;;;;;;18.48;38.61;101803.50;4999264;28;20026;-68
2023/04/10 05:01:18;;;;;;;5.75;3.38;;;;;;;18.47;38.76;101806.25;4988569;28;20953;-67
2023/04/10 05:03:43;;;;;;;5.63;3.45;;;;;;;18.47;38.99;101807.09;5001973;28;20037;-67
2023/04/10 05:06:09;;;;;;;4.47;3.15;;;;;;;18.47;38.78;101801.81;4988131;28;20027;-70
2023/04/10 05:08:34;;;;;;;5.00;3.03;;;;;;;18.44;38.68;101791.47;4985943;28;20034;-68
2023/04/10 05:11:00;;;;;;;4.50;2.78;;;;;;;18.45;38.88;101793.16;5002143;28;20490;-66
2023/04/10 05:13:25;;;;;;;5.32;2.78;;;;;;;18.42;39.04;101788.09;5001298;28;20036;-66
2023/04/10 05:15:51;;;;;;;4.80;2.92;;;;;;;18.46;39.11;101780.81;4989624;28;20038;-68
2023/04/10 05:18:18;;;;;;;4.28;2.60;;;;;;;18.45;39.18;101777.31;4986103;28;20487;-66
2023/04/10 05:20:45;;;;;;;4.85;2.83;;;;;;;18.47;39.56;101774.59;4982813;28;20159;-67
2023/04/10 05:23:10;;;;;;;4.32;2.45;;;;;;;18.49;39.47;101770.03;4982464;28;20046;-67
2023/04/10 05:25:36;;;;;;;3.83;2.42;;;;;;;18.53;39.49;101776.78;4994428;28;20033;-67
2023/04/10 05:28:01;;;;;;;4.50;2.70;;;;;;;18.55;39.64;101774.03;4997353;28;20034;-67
2023/04/10 05:30:26;;;;;;;4.95;2.95;;;;;;;18.57;39.42;101780.91;4994064;28;20268;-67
2023/04/10 05:32:52;;;;;;;4.38;2.60;;;;;;;18.61;39.39;101770.97;4995871;28;20033;-67
2023/04/10 05:35:17;;;;;;;4.40;2.53;;;;;;;18.65;39.53;101772.47;5002224;28;20044;-67
2023/04/10 05:37:42;;;;;;;3.95;2.45;;;;;;;18.68;39.37;101783.66;4996862;28;20073;-67
2023/04/10 05:40:08;;;;;;;4.97;2.50;;;;;;;18.72;39.34;101780.81;4998775;28;20388;-66
2023/04/10 05:42:33;;;;;;;4.47;2.47;;;;;;;18.74;39.23;101782.41;4999389;28;20042;-67
2023/04/10 05:44:58;;;;;;;4.70;2.73;;;;;;;18.76;39.07;101777.84;4982199;28;20061;-66
2023/04/10 05:47:24;;;;;;;3.90;2.37;;;;;;;18.78;39.16;101769.81;4984737;28;20831;-66
2023/04/10 05:49:49;;;;;;;4.32;2.70;;;;;;;18.80;39.14;101774.06;4982110;28;20279;-66
2023/04/10 05:52:15;;;;;;;4.00;2.35;;;;;;;18.83;39.05;101781.78;4982401;28;20121;-66
2023/04/10 05:54:40;;;;;;;4.60;2.42;;;;;;;18.85;39.02;101782.53;4993579;28;20117;-68
2023/04/10 05:57:05;;;;;;;4.20;2.42;;;;;;;18.87;39.22;101785.06;4975024;28;20486;-67
2023/04/10 05:59:30;;;;;;;4.65;2.63;;;;;;;18.90;38.97;101794.56;5001343;28;20042;-66
2023/04/10 06:01:56;;;;;;;4.20;2.30;;;;;;;18.91;38.93;101788.34;5001321;28;20103;-67
2023/04/10 06:04:22;;;;;;;3.90;2.42;;;;;;;18.92;39.04;101797.94;5001479;28;20519;-68
2023/04/10 06:06:47;;;;;;;4.45;2.60;;;;;;;18.93;38.98;101794.34;4991087;28;20120;-68
2023/04/10 06:09:12;;;;;;;4.25;2.53;;;;;;;18.92;38.81;101792.66;4998098;28;20142;-69
2023/04/10 06:11:38;;;;;;;4.30;2.47;;;;;;;18.94;38.89;101793.41;4998304;28;20038;-67
2023/04/10 06:14:03;;;;;;;4.43;2.60;;;;;;;18.92;38.97;101785.59;4988675;28;20081;-66
2023/04/10 06:16:28;;;;;;;4.45;2.60;;;;;;;18.95;38.87;101787.19;4981970;28;20037;-66
2023/04/10 06:18:54;;;;;;;4.00;2.33;;;;;;;18.95;38.88;101785.38;5000994;28;20394;-66
2023/04/10 06:21:19;;;;;;;4.35;2.72;;;;;;;18.94;39.00;101782.84;4994697;28;20077;-66
2023/04/10 06:23:45;;;;;;;4.43;2.50;;;;;;;18.95;38.81;101779.25;4975486;28;20030;-66
2023/04/10 06:26:10;;;;;;;4.38;2.30;;;;;;;18.95;39.01;101772.16;4983200;28;20037;-67
2023/04/10 06:28:36;;;;;;;4.80;2.17;;;;;;;18.97;38.81;101772.06;4982532;28;20406;-66
2023/04/10 06:31:04;;;;;;;4.43;2.45;;;;;;;18.94;38.94;101759.06;4987124;28;20034;-66
2023/04/10 06:33:29;;;;;;;4.47;2.47;;;;;;;18.96;38.62;101757.16;4989897;28;20502;-67
2023/04/10 06:35:56;;;;;;;4.20;2.40;;;;;;;18.94;38.98;101748.50;4963980;28;20065;-67
2023/04/10 06:38:21;;;;;;;4.07;2.40;;;;;;;18.97;38.75;101758.84;4981589;28;20263;-67
2023/04/10 06:40:46;;;;;;;4.53;2.28;;;;;;;18.99;38.78;101751.66;4995191;28;20041;-66
2023/04/10 06:43:11;;;;;;;4.03;2.30;;;;;;;18.96;38.76;101736.00;4995095;28;20156;-67
2023/04/10 06:45:37;;;;;;;4.40;2.58;;;;;;;18.96;38.58;101736.00;4985612;28;20272;-66
2023/04/10 06:48:03;;;;;;;4.00;2.30;;;;;;;18.95;38.65;101739.63;5004652;28;20034;-66
2023/04/10 06:50:28;;;;;;;5.40;3.00;;;;;;;18.97;38.68;101732.44;4991299;28;20111;-68
2023/04/10 06:52:55;;;;;;;4.97;2.53;;;;;;;18.95;38.84;101723.78;4991446;28;20046;-68
2023/04/10 06:55:20;;;;;;;5.05;2.58;;;;;;;18.98;38.79;101727.03;4985657;28;20030;-67
2023/04/10 06:57:46;;;;;;;4.30;2.40;;;;;;;18.96;38.86;101720.16;5004199;28;20026;-68
2023/04/10 07:00:12;;;;;;;5.18;2.25;;;;;;;18.99;38.97;101719.94;5004623;28;20037;-67
2023/04/10 07:02:37;;;;;;;4.45;2.33;;;;;;;19.00;38.86;101719.00;5004671;28;20128;-66
2023/04/10 07:05:03;;;;;;;4.40;2.53;;;;;;;18.99;38.93;101720.81;4986810;28;20113;-67
2023/04/10 07:07:28;;;;;;;5.57;2.50;;;;;;;18.98;39.03;101707.72;4987365;28;20509;-67
2023/04/10 07:09:53;;;;;;;5.10;2.80;;;;;;;18.98;39.00;101699.78;4998862;28;20041;-67
2023/04/10 07:12:19;;;;;;;3.83;2.35;;;;;;;18.99;39.09;101686.47;5002294;28;20073;-67
2023/04/10 07:14:44;;;;;;;4.70;2.50;;;;;;;19.00;39.21;101695.22;4987248;28;20117;-67
2023/04/10 07:17:09;;;;;;;5.13;2.63;;;;;;;18.99;39.13;101691.75;4993283;28;20141;-66
2023/04/10 07:19:36;;;;;;;4.22;2.53;;;;;;;19.01;39.26;101692.47;5004373;28;20268;-69
2023/04/10 07:22:02;;;;;;;5.53;2.60;;;;;;;19.00;39.13;101690.78;5003163;28;20079;-67
2023/04/10 07:24:27;;;;;;;5.07;2.72;;;;;;;18.99;39.28;101677.69;4989301;28;20797;-68
2023/04/10 07:26:52;;;;;;;4.33;2.43;;;;;;;18.99;39.31;101678.56;4998360;28;20112;-68
2023/04/10 07:29:19;;;;;;;4.38;2.38;;;;;;;18.97;39.36;101672.50;4984675;28;20271;-67
2023/04/10 07:31:45;;;;;;;3.97;2.38;;;;;;;18.99;39.45;101678.56;4992706;28;20030;-68
2023/04/10 07:34:11;;;;;;;4.45;2.47;;;;;;;18.97;39.30;101667.22;4988136;28;20423;-68
2023/04/10 07:36:36;;;;;;;4.38;2.55;;;;;;;19.01;39.43;101671.34;4990663;28;20042;-67
2023/04/10 07:39:02;;;;;;;5.70;2.70;;;;;;;18.99;39.25;101664.47;4996247;28;20402;-68
2023/04/10 07:41:27;;;;;;;4.90;2.30;;;;;;;18.99;39.20;101662.69;4984257;28;20748;-67
2023/04/10 07:43:52;;;;;;;4.50;2.80;;;;;;;18.98;39.23;101658.34;4996717;28;20041;-67
2023/04/10 07:46:18;;;;;;;4.75;2.50;;;;;;;19.01;39.40;101652.03;4995413;28;20029;-68
2023/04/10 07:48:43;;;;;;;4.45;2.40;;;;;;;19.01;39.54;101647.56;4985777;28;20446;-66
2023/04/10 07:51:09;;;;;;;4.70;2.90;;;;;;;19.00;39.28;101632.66;4983493;28;20125;-69
2023/04/10 07:53:35;;;;;;;5.55;2.72;;;;;;;19.01;39.45;101634.38;4993522;28;20034;-70
2023/04/10 07:56:01;;;;;;;4.40;2.40;;;;;;;19.02;39.52;101628.09;4992524;28;20034;-67
2023/04/10 07:58:26;;;;;;;8.65;2.80;;;;;;;19.06;39.45;101628.75;5000509;28;20033;-67
2023/04/10 08:00:52;;;;;;;4.95;2.17;;;;;;;19.05;39.49;101619.13;5000867;28;20042;-67
2023/04/10 08:03:17;;;;;;;4.68;2.60;;;;;;;19.08;39.70;101612.78;4994870;28;20038;-68
2023/04/10 08:05:42;;;;;;;4.30;2.45;;;;;;;19.05;39.70;101608.56;4989038;28;20034;-68
2023/04/10 08:08:07;;;;;;;4.38;2.67;;;;;;;19.08;39.75;101613.63;4990957;28;20034;-66
2023/04/10 08:10:38;;;;;;;4.67;2.63;;;;;;;19.08;39.93;101616.25;5001689;28;20053;-67
2023/04/10 08:13:04;;;;;;;4.32;2.70;;;;;;;19.10;39.78;101605.59;4997079;28;20314;-66
2023/04/10 08:15:29;;;;;;;5.15;2.35;;;;;;;19.09;39.49;101604.75;4988832;28;20034;-68
2023/04/10 08:17:55;;;;;;;4.50;2.78;;;;;;;19.08;39.78;101603.06;4998369;28;20041;-66
2023/04/10 08:20:20;;;;;;;5.78;2.55;;;;;;;19.09;39.62;101591.53;5003263;28;20162;-66
2023/04/10 08:22:45;;;;;;;4.78;2.60;;;;;;;19.09;39.90;101604.75;4999771;28;20058;-65
2023/04/10 08:25:11;;;;;;;4.75;2.60;;;;;;;19.12;39.68;101601.88;4983462;28;20030;-68
2023/04/10 08:27:36;;;;;;;4.95;2.70;;;;;;;19.13;39.86;101600.06;4999605;28;20034;-66
2023/04/10 08:30:02;;;;;;;4.45;2.70;;;;;;;19.11;39.94;101597.53;4985284;28;20031;-68
2023/04/10 08:32:28;;;;;;;8.10;2.50;;;;;;;19.13;40.08;101602.72;4983567;28;20042;-68
2023/04/10 08:34:53;;;;;;;4.55;2.55;;;;;;;19.15;39.75;101603.44;4990825;28;20041;-66
2023/04/10 08:37:20;;;;;;;7.05;2.42;;;;;;;19.15;39.71;101599.03;4984448;28;20042;-66
2023/04/10 08:39:45;;;;;;;5.82;2.55;;;;;;;19.15;39.84;101587.59;4999509;28;20120;-66
2023/04/10 08:42:10;;;;;;;5.80;2.92;;;;;;;19.15;39.79;101582.31;4993209;28;20169;-67
2023/04/10 08:44:36;;;;;;;5.30;2.60;;;;;;;19.17;39.98;101589.16;5001797;28;20046;-67
2023/04/10 08:47:02;;;;;;;4.70;2.58;;;;;;;19.15;39.99;101567.31;5002763;28;20105;-67
2023/04/10 08:49:30;;;;;;;4.45;2.47;;;;;;;19.17;40.11;101583.06;5001526;28;20568;-68
2023/04/10 08:51:57;;;;;;;4.60;2.65;;;;;;;19.16;39.98;101579.53;4998660;28;20398;-67
2023/04/10 08:54:36;;;;;;;4.55;2.78;;;;;;;19.18;39.97;101582.06;4993974;28;20034;-68
2023/04/10 08:57:05;;;;;;;5.80;2.42;;;;;;;19.20;39.88;101583.66;4985746;28;20285;-67
2023/04/10 08:59:31;;;;;;;4.68;2.35;;;;;;;19.21;40.39;101587.97;4994137;28;20042;-68
2023/04/10 09:01:57;;;;;;;5.82;2.65;;;;;;;19.21;40.17;101593.25;4991155;28;20041;-68
2023/04/10 09:04:24;;;;;;;5.63;2.50;;;;;;;19.20;40.25;101586.31;4984045;28;20380;-67
2023/04/10 09:06:49;;;;;;;3.90;2.28;;;;;;;19.19;40.26;101575.84;4986641;28;20041;-67
2023/04/10 09:09:15;;;;;;;4.40;2.70;;;;;;;19.21;40.22;101579.22;4998941;28;20030;-68
2023/04/10 09:11:55;;;;;;;5.57;2.38;;;;;;;19.18;40.16;101575.00;4991411;28;20045;-69
2023/04/10 09:14:25;;;;;;;4.63;2.33;;;;;;;19.21;40.36;101566.81;4983324;28;20398;-66
2023/04/10 09:16:52;;;;;;;6.32;2.55;;;;;;;19.23;40.17;101573.81;4969689;28;20967;-66
2023/04/10 09:19:31;;;;;;;4.53;2.78;;;;;;;19.20;40.03;101565.16;5002458;28;20079;-68
2023/04/10 09:21:56;;;;;;;4.57;2.75;;;;;;;19.23;40.08;101561.44;4978267;28;20082;-68
2023/04/10 09:24:22;;;;;;;5.63;2.53;;;;;;;19.24;40.14;101564.94;4980253;28;20530;-68
2023/04/10 09:26:48;;;;;;;5.07;2.50;;;;;;;19.25;40.27;101563.97;4979394;28;20039;-68
2023/04/10 09:29:15;;;;;;;4.40;2.80;;;;;;;19.25;40.65;101538.41;4964092;28;20037;-67
2023/04/10 09:31:41;;;;;;;4.50;2.55;;;;;;;19.26;40.35;101545.34;4977882;28;20070;-68
2023/04/10 09:34:08;;;;;;;4.50;2.40;;;;;;;19.29;40.49;101544.28;4977573;28;20054;-69
2023/04/10 09:36:33;;;;;;;4.43;2.40;;;;;;;19.29;40.63;101534.53;4970034;28;20042;-67
2023/04/10 09:38:58;;;;;;;5.03;2.80;;;;;;;19.30;40.39;101532.78;4963286;28;20058;-66
2023/04/10 09:41:24;;;;;;;4.28;2.40;;;;;;;19.28;40.20;101524.09;4972768;28;20034;-66
2023/04/10 09:44:04;;;;;;;5.45;2.30;;;;;;;19.28;40.49;101516.16;4975790;28;20122;-66
2023/04/10 09:46:30;;;;;;;6.13;2.50;;;;;;;19.26;40.10;101505.72;4974976;28;20475;-69
2023/04/10 09:49:00;;;;;;;6.10;2.60;;;;;;;19.25;40.23;101500.53;4972419;28;20033;-66
2023/04/10 09:51:32;;;;;;;5.63;2.33;;;;;;;19.24;40.16;101499.72;4968635;28;20034;-66
2023/04/10 09:53:58;;;;;;;4.60;2.70;;;;;;;19.24;40.28;101499.72;4970539;28;20398;-66
2023/04/10 09:56:25;;;;;;;5.40;2.60;;;;;;;19.22;40.16;101496.34;4976625;28;20030;-66
2023/04/10 09:58:52;;;;;;;5.35;2.58;;;;;;;19.21;40.12;101498.13;4970745;28;20357;-65
2023/04/10 10:01:19;;;;;;;4.00;2.47;;;;;;;19.21;39.92;101492.84;4975231;28;20402;-68
2023/04/10 10:03:45;;;;;;;4.80;2.42;;;;;;;19.22;40.04;101499.00;4969103;28;20038;-66
2023/04/10 10:06:10;;;;;;;5.15;2.40;;;;;;;19.21;40.10;101489.38;4973209;28;20026;-67
2023/04/10 10:08:36;;;;;;;4.38;2.60;;;;;;;19.21;39.85;101487.56;4962840;28;20027;-66
2023/04/10 10:11:08;;;;;;;4.15;2.20;;;;;;;19.19;39.90;101492.13;4962821;28;20480;-69
2023/04/10 10:13:47;;;;;;;4.22;2.38;;;;;;;19.19;39.83;101478.09;4971064;28;20034;-67
2023/04/10 10:16:22;;;;;;;4.82;2.30;;;;;;;19.18;39.91;101471.09;4962204;28;20026;-66
2023/04/10 10:19:04;;;;;;;4.63;2.45;;;;;;;19.20;39.91;101472.69;4968952;28;20069;-66
2023/04/10 10:21:33;;;;;;;4.35;2.60;;;;;;;19.16;39.78;101465.09;4987709;28;20116;-67
2023/04/10 10:24:00;;;;;;;4.35;2.72;;;;;;;19.19;39.68;101465.69;5000327;28;20045;-66
2023/04/10 10:26:26;;;;;;;4.75;2.45;;;;;;;19.20;39.75;101455.97;4986732;28;20034;-67
2023/04/10 10:28:52;;;;;;;5.05;2.50;;;;;;;19.20;39.62;101448.91;4999412;28;20026;-66
2023/04/10 10:31:18;;;;;;;4.35;2.28;;;;;;;19.20;39.64;101453.31;5000636;28;20476;-66
2023/04/10 10:33:46;;;;;;;4.55;2.50;;;;;;;19.20;39.58;101451.53;4982027;28;20070;-68
2023/04/10 10:36:13;;;;;;;4.20;2.33;;;;;;;19.19;39.66;101443.72;4994513;28;20564;-68
2023/04/10 10:38:43;;;;;;;5.32;2.17;;;;;;;19.19;39.76;101434.00;4981799;28;20037;-66
2023/04/10 10:41:20;;;;;;;4.85;2.65;;;;;;;19.18;39.80;101440.25;4987934;28;20033;-67
2023/04/10 10:44:01;;;;;;;3.88;2.35;;;;;;;19.18;39.86;101442.03;5000737;28;20464;-66
2023/04/10 10:46:49;;;;;;;4.20;2.40;;;;;;;19.19;39.75;101427.88;4985289;28;20034;-64
2023/04/10 10:49:15;;;;;;;4.03;2.33;;;;;;;19.17;39.80;101420.06;4999005;28;20053;-66
2023/04/10 10:51:48;;;;;;;4.22;2.30;;;;;;;19.17;39.74;101409.50;4992421;28;20034;-65
2023/04/10 10:54:33;;;;;;;4.17;2.53;;;;;;;19.18;39.66;101412.97;4977606;28;20103;-65
2023/04/10 10:57:00;;;;;;;3.78;2.20;;;;;;;19.18;39.65;101405.91;4982819;28;20600;-66
2023/04/10 10:59:46;;;;;;;4.95;2.30;;;;;;;19.19;39.77;101404.09;4996816;28;20117;-66
2023/04/10 11:02:16;;;;;;;4.20;2.20;;;;;;;19.18;39.73;101390.06;4996655;28;20029;-67
2023/04/10 11:04:46;;;;;;;4.57;2.53;;;;;;;19.18;39.71;101397.13;4995647;28;20069;-66
2023/04/10 11:07:13;;;;;;;4.22;2.50;;;;;;;19.20;39.65;101390.78;4987611;28;20092;-65
2023/04/10 11:09:52;;;;;;;4.43;2.42;;;;;;;19.20;39.80;101392.56;4996683;28;20930;-66
2023/04/10 11:12:22;;;;;;;4.78;2.13;;;;;;;19.18;39.64;101392.69;4981344;28;20066;-68
2023/04/10 11:15:02;;;;;;;4.00;2.20;;;;;;;19.19;39.65;101378.50;4988002;28;20110;-67
2023/04/10 11:17:53;;;;;;;4.13;2.40;;;;;;;19.21;39.78;101378.38;4982596;28;20037;-66
2023/04/10 11:20:26;;;;;;;4.30;2.22;;;;;;;19.23;39.61;101372.97;4997767;28;20097;-67
2023/04/10 11:23:11;;;;;;;4.35;2.15;;;;;;;19.21;39.57;101370.47;4984766;28;20499;-67
2023/04/10 11:25:50;;;;;;;3.78;1.90;;;;;;;19.23;39.50;101359.78;5000793;28;20030;-67